KBZN

Bozeman Yellowstone International Airport

Airport
ICAO code
KBZN
Summary
ICAO Region
NAM
ICAO Territory
Location

Belgrade, Gallatin County, Montana,

Coordinates
45° 46' 37" N , 111° 9' 38" W
KCC
Airport CFIT
Altimeter Temperature Error Correction
Airport RE
Hot and High Operations
Metar
Observation
KBZN 060656Z AUTO 14008KT 10SM CLR 07/04 A3031 RMK AO2 SLP252 T00670039 402330017
Station
Bozeman, Gallatin Field
Date/Time
2022-10-06 06:56:00
Wind direction
140°
Wind speed
08 kts
Lowest cloud amount
n/a
Temperature
6.7°C
Dew point
3.9°C
Humidity
82%
Weather condition
n/a

Description

Bozeman Yellowstone International Airport, formerly known as Gallatin Field Airport, is a public-use airport located 13 km northwest of the central business district of Bozeman, a city in Gallatin County, Montana, United States. It is owned by the Gallatin Airport Authority. The airport is situated in Belgrade, Montana and serves Bozeman, Big Sky, Southwestern Montana and Yellowstone National Park.

Climatology

Continental climate (Köppen climate classification DFb) with cold winters and warm, dry summers.

Airport map

Aerial View

SKYbrary Partners:

Safety knowledge contributed by: